createdAt,value
2022-08-25T00:02:02.027Z,1.48
2022-08-25T00:04:30.517Z,1.50
2022-08-25T00:07:02.785Z,1.58
2022-08-25T00:09:31.607Z,1.70
2022-08-25T00:11:59.449Z,1.40
2022-08-25T00:14:30.821Z,1.40
2022-08-25T00:16:58.873Z,1.75
2022-08-25T00:19:29.778Z,1.40
2022-08-25T00:21:56.666Z,1.65
2022-08-25T00:24:24.427Z,1.63
2022-08-25T00:26:54.970Z,1.90
2022-08-25T00:29:23.216Z,1.90
2022-08-25T00:31:49.973Z,1.70
2022-08-25T00:34:22.159Z,1.70
2022-08-25T00:36:51.658Z,1.63
2022-08-25T00:39:21.071Z,1.48
2022-08-25T00:41:50.318Z,1.75
2022-08-25T00:44:18.767Z,1.90
2022-08-25T00:46:58.213Z,1.60
2022-08-25T00:49:33.762Z,1.60
2022-08-25T00:52:08.558Z,1.70
2022-08-25T00:54:45.670Z,1.80
2022-08-25T00:57:14.880Z,2.00
2022-08-25T00:59:43.391Z,1.63
2022-08-25T01:02:13.975Z,1.50
2022-08-25T01:04:47.212Z,1.70
2022-08-25T01:07:18.627Z,2.00
2022-08-25T01:09:47.693Z,1.90
2022-08-25T01:12:14.715Z,1.70
2022-08-25T01:14:42.283Z,1.98
2022-08-25T01:17:09.562Z,1.80
2022-08-25T01:19:36.341Z,1.85
2022-08-25T01:22:03.767Z,1.90
2022-08-25T01:24:44.931Z,1.90
2022-08-25T01:27:11.999Z,1.73
2022-08-25T01:29:39.165Z,1.92
2022-08-25T01:32:10.239Z,1.83
2022-08-25T01:34:41.201Z,1.75
2022-08-25T01:37:12.059Z,1.85
2022-08-25T01:39:41.793Z,2.30
2022-08-25T01:42:27.062Z,2.08
2022-08-25T01:44:54.519Z,1.90
2022-08-25T01:47:21.291Z,1.88
2022-08-25T01:49:48.645Z,2.13
2022-08-25T01:52:29.332Z,2.15
2022-08-25T01:54:56.326Z,1.92
2022-08-25T01:57:23.181Z,2.20
2022-08-25T01:59:50.229Z,1.90
2022-08-25T02:02:18.418Z,1.90
2022-08-25T02:04:45.439Z,1.85
2022-08-25T02:07:12.224Z,2.20
2022-08-25T02:09:39.523Z,1.83
2022-08-25T02:12:09.153Z,1.83
2022-08-25T02:14:36.734Z,2.00
2022-08-25T02:17:04.797Z,2.05
2022-08-25T02:19:32.103Z,2.03
2022-08-25T02:22:00.123Z,2.38
2022-08-25T02:24:26.983Z,1.90
2022-08-25T02:26:53.786Z,2.28
2022-08-25T02:29:21.079Z,1.90
2022-08-25T02:31:47.862Z,2.20
2022-08-25T02:34:15.213Z,2.00
2022-08-25T02:36:43.610Z,2.00
2022-08-25T02:39:11.688Z,2.30
2022-08-25T02:41:38.952Z,2.35
2022-08-25T02:44:07.270Z,2.10
2022-08-25T02:46:34.138Z,2.38
2022-08-25T02:49:00.919Z,2.10
2022-08-25T02:51:30.045Z,2.22
2022-08-25T02:53:58.558Z,2.33
2022-08-25T02:56:25.879Z,2.40
2022-08-25T02:58:53.051Z,2.45
2022-08-25T03:01:20.387Z,2.15
2022-08-25T03:03:50.654Z,2.20
2022-08-25T03:06:22.955Z,2.20
2022-08-25T03:08:50.195Z,2.30
2022-08-25T03:11:17.942Z,2.40
2022-08-25T03:13:44.762Z,2.50
2022-08-25T03:16:12.334Z,2.50
2022-08-25T03:18:41.657Z,2.50
2022-08-25T03:21:11.418Z,2.40
2022-08-25T03:23:38.426Z,2.00
2022-08-25T03:26:23.938Z,2.35
2022-08-25T03:28:50.708Z,2.00
2022-08-25T03:31:17.631Z,2.58
2022-08-25T03:33:44.492Z,2.83
2022-08-25T03:36:12.256Z,2.80
2022-08-25T03:38:40.965Z,2.88
2022-08-25T03:41:27.897Z,2.60
2022-08-25T03:43:56.697Z,2.45
2022-08-25T03:46:29.929Z,2.33
2022-08-25T03:51:32.048Z,2.55
2022-08-25T03:53:59.348Z,2.38
2022-08-25T03:56:27.396Z,2.20
2022-08-25T03:58:54.953Z,2.95
2022-08-25T04:01:22.739Z,2.67
2022-08-25T04:03:49.918Z,2.50
2022-08-25T04:06:18.424Z,2.47
2022-08-25T04:08:45.542Z,2.35
2022-08-25T04:11:18.997Z,2.30
2022-08-25T04:13:46.760Z,2.50
2022-08-25T04:16:16.593Z,2.30
2022-08-25T04:18:44.472Z,2.42
2022-08-25T04:21:12.908Z,2.47
2022-08-25T04:23:42.347Z,2.30
2022-08-25T04:26:11.093Z,2.60
2022-08-25T04:28:38.812Z,2.58
2022-08-25T04:31:07.918Z,2.67
2022-08-25T04:33:35.884Z,2.58
2022-08-25T04:36:03.107Z,2.58
2022-08-25T04:38:30.768Z,2.80
2022-08-25T04:41:03.287Z,2.40
2022-08-25T04:43:31.636Z,2.47
2022-08-25T04:45:59.252Z,2.67
2022-08-25T04:48:26.452Z,2.45
2022-08-25T04:50:53.168Z,2.60
2022-08-25T04:53:22.003Z,2.42
2022-08-25T04:55:49.034Z,2.70
2022-08-25T04:58:16.989Z,2.47
2022-08-25T05:00:43.975Z,2.97
2022-08-25T05:03:10.783Z,2.80
2022-08-25T05:05:38.094Z,2.80
2022-08-25T05:08:08.048Z,3.20
2022-08-25T05:10:38.862Z,2.60
2022-08-25T05:13:18.329Z,2.80
2022-08-25T05:15:52.876Z,2.75
2022-08-25T05:18:21.535Z,2.70
2022-08-25T05:20:48.612Z,2.78
2022-08-25T05:23:15.684Z,2.60
2022-08-25T05:25:42.815Z,3.03
2022-08-25T05:28:13.866Z,2.80
2022-08-25T05:31:06.613Z,3.28
2022-08-25T05:37:50.537Z,3.92
2022-08-25T05:43:20.081Z,4.72
2022-08-25T05:52:41.901Z,3.72
2022-08-25T05:56:00.001Z,3.80
2022-08-25T06:10:27.533Z,3.50
2022-08-25T06:17:25.252Z,3.63
2022-08-25T06:27:13.267Z,4.78
2022-08-25T06:33:11.688Z,3.80
2022-08-25T06:47:04.734Z,4.38
2022-08-25T06:59:07.823Z,4.68
2022-08-25T07:10:24.629Z,4.07
2022-08-25T07:13:49.569Z,3.83
2022-08-25T07:20:31.440Z,4.15
2022-08-25T07:41:41.926Z,3.90
2022-08-25T08:14:39.650Z,4.15
2022-08-25T08:34:24.916Z,4.20
2022-08-25T08:49:33.783Z,3.72
2022-08-25T09:05:11.105Z,3.67
2022-08-25T09:08:35.353Z,3.90
2022-08-25T09:16:34.751Z,3.67
2022-08-25T09:26:41.136Z,3.90
2022-08-25T09:36:09.024Z,3.78
2022-08-25T09:47:09.427Z,3.63
2022-08-25T10:07:17.025Z,3.00
2022-08-25T10:13:23.558Z,3.60
2022-08-25T10:16:47.181Z,3.67
2022-08-25T10:32:26.339Z,3.50
2022-08-25T10:46:00.895Z,2.93
2022-08-25T10:49:19.096Z,2.92
2022-08-25T10:56:19.692Z,3.03
2022-08-25T10:59:06.187Z,2.80
2022-08-25T11:06:23.109Z,2.78
2022-08-25T11:16:48.718Z,2.92
2022-08-25T11:31:27.213Z,2.30
2022-08-25T11:33:55.542Z,2.47
2022-08-25T11:36:33.919Z,2.42
2022-08-25T11:39:04.138Z,2.00
2022-08-25T11:42:00.820Z,2.00
2022-08-25T11:44:53.175Z,2.78
2022-08-25T11:47:39.672Z,2.25
2022-08-25T11:50:35.198Z,2.42
2022-08-25T11:53:28.251Z,2.40
2022-08-25T11:56:02.810Z,2.78
2022-08-25T11:58:40.600Z,2.70
2022-08-25T12:01:45.256Z,2.15
2022-08-25T12:04:33.740Z,2.10
2022-08-25T12:07:06.905Z,2.42
2022-08-25T12:09:54.720Z,2.38
2022-08-25T12:12:56.193Z,3.08
2022-08-25T12:15:25.031Z,2.67
2022-08-25T12:18:11.919Z,2.38
2022-08-25T12:20:58.145Z,2.67
2022-08-25T12:23:32.837Z,2.40
2022-08-25T12:26:32.991Z,2.40
2022-08-25T12:29:27.523Z,2.10
2022-08-25T12:32:04.497Z,2.17
2022-08-25T12:35:11.669Z,1.80
2022-08-25T12:38:02.745Z,1.90
2022-08-25T12:40:37.456Z,1.77
2022-08-25T12:43:19.681Z,1.60
2022-08-25T12:45:49.744Z,1.57
2022-08-25T12:48:28.735Z,1.40
2022-08-25T12:51:00.973Z,1.52
2022-08-25T12:53:38.806Z,1.63
2022-08-25T12:56:25.106Z,1.90
2022-08-25T12:59:19.445Z,1.63
2022-08-25T13:02:22.077Z,2.40
2022-08-25T13:05:07.069Z,1.60
2022-08-25T13:07:53.084Z,1.60
2022-08-25T13:10:43.349Z,1.58
2022-08-25T13:13:32.580Z,1.92
2022-08-25T13:16:16.212Z,1.63
2022-08-25T13:18:42.942Z,1.58
2022-08-25T13:21:15.350Z,1.65
2022-08-25T13:23:45.798Z,1.55
2022-08-25T13:26:23.127Z,1.52
2022-08-25T13:28:57.883Z,1.73
2022-08-25T13:31:29.031Z,1.55
2022-08-25T13:34:05.379Z,1.80
2022-08-25T13:37:00.732Z,1.70
2022-08-25T13:39:45.944Z,1.88
2022-08-25T13:42:20.422Z,1.70
2022-08-25T13:44:56.421Z,1.50
2022-08-25T13:47:43.873Z,1.50
2022-08-25T13:50:27.290Z,1.58
2022-08-25T13:53:05.402Z,1.80
2022-08-25T13:55:50.422Z,1.65
2022-08-25T13:58:39.305Z,1.60
2022-08-25T14:04:39.658Z,1.60
2022-08-25T14:07:20.870Z,1.50
2022-08-25T14:09:57.897Z,1.42
2022-08-25T14:12:33.866Z,1.40
2022-08-25T14:19:05.279Z,1.50
2022-08-25T14:21:59.209Z,1.75
2022-08-25T14:25:20.315Z,1.40
2022-08-25T14:28:25.493Z,1.50
2022-08-25T14:38:54.741Z,1.50
2022-08-25T14:41:30.312Z,1.58
2022-08-25T14:44:50.837Z,1.58
2022-08-25T14:58:50.778Z,1.58
2022-08-25T15:14:06.150Z,1.40
2022-08-25T15:17:07.231Z,1.17
2022-08-25T15:27:15.209Z,1.10
2022-08-25T15:30:47.724Z,1.17
2022-08-25T15:33:27.956Z,1.48
2022-08-25T15:44:32.646Z,1.20
2022-08-25T15:47:58.512Z,1.30
2022-08-25T15:50:58.351Z,1.48
2022-08-25T15:53:37.669Z,1.48
2022-08-25T16:00:19.500Z,1.23
2022-08-25T16:03:28.183Z,1.35
2022-08-25T16:13:52.861Z,1.50
2022-08-25T16:17:07.345Z,1.10
2022-08-25T16:19:48.788Z,1.35
2022-08-25T16:33:18.372Z,1.30
2022-08-25T16:40:38.059Z,1.40
2022-08-25T16:43:58.641Z,1.45
2022-08-25T16:57:24.798Z,1.25
2022-08-25T17:00:23.909Z,1.42
2022-08-25T17:03:25.745Z,1.52
2022-08-25T17:06:05.445Z,1.52
2022-08-25T17:09:32.117Z,1.45
2022-08-25T17:12:49.229Z,1.30
2022-08-25T17:15:27.782Z,1.50
2022-08-25T17:22:21.202Z,1.23
2022-08-25T17:25:17.942Z,1.50
2022-08-25T17:31:57.588Z,3.38
2022-08-25T17:35:37.473Z,1.90
2022-08-25T17:42:41.831Z,2.00
2022-08-25T17:45:43.150Z,1.58
2022-08-25T17:54:33.040Z,1.50
2022-08-25T17:57:32.470Z,1.92
2022-08-25T18:08:54.503Z,1.63
2022-08-25T18:12:18.210Z,1.50
2022-08-25T18:15:55.349Z,1.85
2022-08-25T18:22:04.399Z,2.10
2022-08-25T18:25:46.823Z,2.00
2022-08-25T18:32:45.303Z,2.10
2022-08-25T18:39:48.791Z,2.05
2022-08-25T18:42:48.780Z,1.63
2022-08-25T18:45:29.121Z,2.35
2022-08-25T18:52:55.095Z,1.70
2022-08-25T18:56:08.413Z,2.10
2022-08-25T19:06:20.212Z,1.90
2022-08-25T19:16:40.514Z,2.00
2022-08-25T19:24:04.918Z,2.20
2022-08-25T19:44:12.205Z,1.90
2022-08-25T19:54:44.424Z,1.98
2022-08-25T19:57:42.447Z,1.80
2022-08-25T20:01:02.393Z,1.80
2022-08-25T20:11:44.617Z,1.80
2022-08-25T20:14:21.562Z,1.92
2022-08-25T20:16:51.495Z,1.90
2022-08-25T20:26:32.168Z,2.20
2022-08-25T20:26:35.767Z,1.92
2022-08-25T20:32:33.840Z,1.80
2022-08-25T20:35:14.341Z,2.00
2022-08-25T20:41:17.263Z,2.35
2022-08-25T20:48:17.877Z,2.55
2022-08-25T20:50:44.708Z,2.30
2022-08-25T20:57:26.665Z,2.25
2022-08-25T20:59:55.447Z,2.20
2022-08-25T21:02:23.861Z,2.28
2022-08-25T21:04:51.733Z,2.05
2022-08-25T21:07:20.363Z,2.20
2022-08-25T21:09:47.566Z,2.10
2022-08-25T21:12:14.729Z,2.25
2022-08-25T21:14:42.115Z,2.20
2022-08-25T21:17:12.742Z,2.15
2022-08-25T21:19:40.194Z,2.50
2022-08-25T21:22:09.428Z,2.20
2022-08-25T21:24:38.323Z,2.60
2022-08-25T21:27:05.257Z,2.65
2022-08-25T21:29:33.044Z,2.55
2022-08-25T21:32:00.363Z,2.78
2022-08-25T21:34:29.034Z,2.75
2022-08-25T21:36:59.388Z,2.50
2022-08-25T21:39:29.509Z,2.30
2022-08-25T21:42:00.158Z,2.80
2022-08-25T21:44:27.764Z,2.67
2022-08-25T21:46:54.871Z,2.33
2022-08-25T21:49:23.279Z,3.00
2022-08-25T21:52:02.344Z,3.15
2022-08-25T21:54:31.664Z,2.60
2022-08-25T21:57:05.844Z,2.50
2022-08-25T21:59:37.600Z,2.30
2022-08-25T22:02:07.982Z,2.08
2022-08-25T22:04:37.062Z,2.40
2022-08-25T22:07:07.550Z,2.08
2022-08-25T22:09:35.359Z,2.30
2022-08-25T22:12:02.719Z,2.20
2022-08-25T22:14:29.434Z,2.50
2022-08-25T22:16:56.431Z,2.75
2022-08-25T22:19:23.536Z,2.75
2022-08-25T22:21:51.587Z,2.33
2022-08-25T22:24:19.421Z,3.10
2022-08-25T22:26:47.694Z,3.38
2022-08-25T22:29:15.853Z,2.75
2022-08-25T22:31:53.001Z,2.50
2022-08-25T22:34:19.955Z,2.58
2022-08-25T22:36:59.549Z,2.45
2022-08-25T22:39:27.739Z,2.30
2022-08-25T22:41:54.463Z,2.40
2022-08-25T22:44:23.519Z,2.22
2022-08-25T22:46:50.518Z,2.50
2022-08-25T22:49:18.003Z,2.45
2022-08-25T22:51:46.923Z,2.50
2022-08-25T22:54:15.109Z,2.50
2022-08-25T22:56:42.157Z,2.70
2022-08-25T22:59:11.418Z,2.40
2022-08-25T23:01:39.617Z,2.47
2022-08-25T23:04:07.010Z,2.50
2022-08-25T23:06:36.817Z,2.55
2022-08-25T23:09:06.155Z,2.70
2022-08-25T23:11:33.095Z,2.60
2022-08-25T23:14:00.490Z,2.80
2022-08-25T23:16:28.372Z,2.53
2022-08-25T23:18:55.264Z,2.83
2022-08-25T23:21:40.986Z,2.60
2022-08-25T23:24:10.947Z,2.40
2022-08-25T23:26:41.952Z,2.50
2022-08-25T23:29:17.851Z,2.75
2022-08-25T23:31:47.803Z,2.40
2022-08-25T23:34:16.521Z,2.80
2022-08-25T23:36:43.796Z,3.00
2022-08-25T23:39:11.303Z,3.15
2022-08-25T23:41:38.799Z,2.95
2022-08-25T23:44:06.695Z,3.05
2022-08-25T23:46:35.982Z,2.97
2022-08-25T23:49:04.783Z,2.97
2022-08-25T23:51:34.090Z,2.88
2022-08-25T23:54:05.972Z,3.17
2022-08-25T23:56:34.349Z,3.00
2022-08-25T23:59:03.463Z,2.50
